FBSKFYWH

Guest
Details From FBSK - Sir Seretse Khama Intl
To FYWH - Windhoek Hosea Kutako Intl
Flight Number -
Tags Generated
Created
Modified
Stats Distance 481 nm / 891 km
Max Altitude 0 ft / 0 m
Waypoints 3
Social Downloads 1
Likes 0
Share VATSIM

Download

Looking for another format? Having issues loading an existing format? Contact us
Advertisement - Login to hide

Notes

Generated

Route

FBSK WHV FYWH

ID Type Via Altitude Latitude Longitude Leg Dist Tot Dist Heading (true) Name
O FBSK APT - 0 ft / 0 m -24.56167˚ 25.90517˚ - 0 nm - -
WHV VOR - 0 ft / 0 m -22.47750˚ 17.47056˚ 480 nm 480 nm 283° / 287° WINDHOEK VOR-DME
O FYWH APT - 0 ft / 0 m -22.47768˚ 17.46905˚ 0 nm 481 nm 263° / 263° Windhoek Hosea Kutako Intl

Altitude Profile

Advertisement - Login to hide

Weather


0- 5 10 15 20 25 30 35+ Temperature / ° C

Clouds and Precipitation
Forecast for 2017-12-16 00:00 UTC. Updated 37 minutes ago

Ground ~20,000 ft ~40,000 ft Winds

FBSK

Details ICAO FBSK (GBE)
Name SIR SERETSE KHAMA INTL
Region Botswana
Timezone Africa/Gaborone (UTC+2.0)
Stats Elevation 3,299 ft / 1,006 m (AMSL)
Location -24.555225° 25.918208°
Runways 1
Magnetic Variation 15.676° W

METAR

FBSK 151900Z 06013G23KT CAVOK 22/15 Q1020 NOSIG

Decode

TAF

Not found

Departure Runways

ID Width Length Bearing (true) Bearing (mag) Surface Threshold Offset Overrun Length
08 148 ft / 45 m 9,849 ft / 3,002 m 61.48° 77.16° Concrete 0 ft / 0 m 197 ft / 60 m
26 148 ft / 45 m 9,849 ft / 3,002 m 241.47° 257.15° Concrete 0 ft / 0 m 197 ft / 60 m

FYWH

Details ICAO FYWH
Name Windhoek Hosea Kutako Intl
Region Namibia
Timezone Africa/Windhoek (UTC+2.0)
Stats Elevation 5,640 ft / 1,719 m (AMSL)
Location -22.481811° 17.471569°
Runways 2
Magnetic Variation 12.006° W

METAR

FYWH 151900Z 27010KT 9999 FEW050CB 25/M08 Q1021

Decode

TAF

Not found

Destination Runways

ID Width Length Bearing (true) Bearing (mag) Surface Threshold Offset Overrun Length
08 148 ft / 45 m 15,003 ft / 4,573 m 63.51° 75.52° Asphalt 0 ft / 0 m 345 ft / 105 m
16 98 ft / 30 m 5,010 ft / 1,527 m 141.33° 153.34° Asphalt 0 ft / 0 m 38 ft / 12 m
26 148 ft / 45 m 15,003 ft / 4,573 m 243.49° 255.50° Asphalt 0 ft / 0 m 84 ft / 26 m
34 98 ft / 30 m 5,010 ft / 1,527 m 321.32° 333.33° Asphalt 0 ft / 0 m 38 ft / 12 m

Approach Navaids

Runway Type Ident Frequency Range Bearing (true) Bearing (mag) Slope Elevation
26 Localiser WD 110.30 MHz 18 nm / 33 km 243.39° 255.40° - 5,640 ft / 1,719 m (AMSL)
26 Glidescope WD 110.30 MHz 10 nm / 19 km 243.50° 255.50° 3.00° 5,640 ft / 1,719 m (AMSL)

Popular Alternatives